sensor_id;sensor_type;location;lat;lon;timestamp;P1;durP1;ratioP1;P2;durP2;ratioP2
63945;SDS011;50122;56.330;43.838;2023-06-01T00:02:18;9.50;;;6.72;;
63945;SDS011;50122;56.330;43.838;2023-06-01T00:04:45;9.85;;;7.43;;
63945;SDS011;50122;56.330;43.838;2023-06-01T00:07:14;9.52;;;7.45;;
63945;SDS011;50122;56.330;43.838;2023-06-01T00:09:41;13.38;;;7.05;;
63945;SDS011;50122;56.330;43.838;2023-06-01T00:12:08;9.80;;;7.15;;
63945;SDS011;50122;56.330;43.838;2023-06-01T00:14:35;10.35;;;7.40;;
63945;SDS011;50122;56.330;43.838;2023-06-01T00:17:02;9.23;;;7.32;;
63945;SDS011;50122;56.330;43.838;2023-06-01T00:19:32;10.45;;;7.35;;
63945;SDS011;50122;56.330;43.838;2023-06-01T00:21:58;9.32;;;7.05;;
63945;SDS011;50122;56.330;43.838;2023-06-01T00:24:26;11.35;;;7.38;;
63945;SDS011;50122;56.330;43.838;2023-06-01T00:26:53;9.70;;;7.55;;
63945;SDS011;50122;56.330;43.838;2023-06-01T00:29:20;8.63;;;6.63;;
63945;SDS011;50122;56.330;43.838;2023-06-01T00:31:47;9.20;;;6.30;;
63945;SDS011;50122;56.330;43.838;2023-06-01T00:34:14;9.63;;;6.95;;
63945;SDS011;50122;56.330;43.838;2023-06-01T00:36:41;10.95;;;6.63;;
63945;SDS011;50122;56.330;43.838;2023-06-01T00:39:08;10.40;;;6.95;;
63945;SDS011;50122;56.330;43.838;2023-06-01T00:41:35;12.10;;;7.35;;
63945;SDS011;50122;56.330;43.838;2023-06-01T00:44:02;10.38;;;7.45;;
63945;SDS011;50122;56.330;43.838;2023-06-01T00:46:29;9.10;;;6.60;;
63945;SDS011;50122;56.330;43.838;2023-06-01T00:48:58;13.50;;;7.45;;
63945;SDS011;50122;56.330;43.838;2023-06-01T00:51:25;11.68;;;8.05;;
63945;SDS011;50122;56.330;43.838;2023-06-01T00:53:52;13.57;;;8.63;;
63945;SDS011;50122;56.330;43.838;2023-06-01T00:56:19;12.57;;;7.70;;
63945;SDS011;50122;56.330;43.838;2023-06-01T00:58:47;12.93;;;8.15;;
63945;SDS011;50122;56.330;43.838;2023-06-01T01:01:14;12.07;;;8.10;;
63945;SDS011;50122;56.330;43.838;2023-06-01T01:03:49;11.55;;;7.82;;
63945;SDS011;50122;56.330;43.838;2023-06-01T01:06:42;8.63;;;5.90;;
63945;SDS011;50122;56.330;43.838;2023-06-01T01:12:22;10.23;;;6.93;;
63945;SDS011;50122;56.330;43.838;2023-06-01T01:15:01;10.63;;;7.57;;
63945;SDS011;50122;56.330;43.838;2023-06-01T01:17:37;11.23;;;7.30;;
63945;SDS011;50122;56.330;43.838;2023-06-01T01:20:13;11.45;;;7.35;;
63945;SDS011;50122;56.330;43.838;2023-06-01T01:25:20;13.25;;;7.35;;
63945;SDS011;50122;56.330;43.838;2023-06-01T01:31:02;9.20;;;6.82;;
63945;SDS011;50122;56.330;43.838;2023-06-01T01:33:31;10.75;;;6.68;;
63945;SDS011;50122;56.330;43.838;2023-06-01T01:35:59;8.68;;;6.57;;
63945;SDS011;50122;56.330;43.838;2023-06-01T01:38:27;9.57;;;6.80;;
63945;SDS011;50122;56.330;43.838;2023-06-01T01:40:55;9.32;;;6.15;;
63945;SDS011;50122;56.330;43.838;2023-06-01T01:43:22;7.70;;;6.05;;
63945;SDS011;50122;56.330;43.838;2023-06-01T01:45:51;9.65;;;6.22;;
63945;SDS011;50122;56.330;43.838;2023-06-01T01:51:24;7.40;;;5.13;;
63945;SDS011;50122;56.330;43.838;2023-06-01T01:54:05;7.53;;;5.43;;
63945;SDS011;50122;56.330;43.838;2023-06-01T01:56:36;6.07;;;4.40;;
63945;SDS011;50122;56.330;43.838;2023-06-01T01:59:04;8.20;;;5.40;;
63945;SDS011;50122;56.330;43.838;2023-06-01T02:01:32;7.35;;;5.55;;
63945;SDS011;50122;56.330;43.838;2023-06-01T02:04:02;8.48;;;5.45;;
63945;SDS011;50122;56.330;43.838;2023-06-01T02:06:30;7.22;;;5.20;;
63945;SDS011;50122;56.330;43.838;2023-06-01T02:08:57;6.20;;;4.32;;
63945;SDS011;50122;56.330;43.838;2023-06-01T02:11:23;7.28;;;4.97;;
63945;SDS011;50122;56.330;43.838;2023-06-01T02:13:50;8.80;;;5.10;;
63945;SDS011;50122;56.330;43.838;2023-06-01T02:16:18;7.18;;;5.25;;
63945;SDS011;50122;56.330;43.838;2023-06-01T02:18:44;7.05;;;4.70;;
63945;SDS011;50122;56.330;43.838;2023-06-01T02:21:12;7.07;;;4.78;;
63945;SDS011;50122;56.330;43.838;2023-06-01T02:23:40;7.53;;;4.13;;
63945;SDS011;50122;56.330;43.838;2023-06-01T02:26:08;8.77;;;4.80;;
63945;SDS011;50122;56.330;43.838;2023-06-01T02:28:37;6.88;;;4.85;;
63945;SDS011;50122;56.330;43.838;2023-06-01T02:31:05;6.43;;;4.85;;
63945;SDS011;50122;56.330;43.838;2023-06-01T02:33:32;7.47;;;4.70;;
63945;SDS011;50122;56.330;43.838;2023-06-01T02:35:59;6.90;;;4.35;;
63945;SDS011;50122;56.330;43.838;2023-06-01T02:38:27;6.70;;;4.32;;
63945;SDS011;50122;56.330;43.838;2023-06-01T02:40:55;6.95;;;4.78;;
63945;SDS011;50122;56.330;43.838;2023-06-01T02:43:22;5.57;;;4.25;;
63945;SDS011;50122;56.330;43.838;2023-06-01T02:45:49;6.10;;;4.05;;
63945;SDS011;50122;56.330;43.838;2023-06-01T02:48:16;6.75;;;4.53;;
63945;SDS011;50122;56.330;43.838;2023-06-01T02:50:43;6.57;;;4.00;;
63945;SDS011;50122;56.330;43.838;2023-06-01T02:53:10;7.68;;;4.20;;
63945;SDS011;50122;56.330;43.838;2023-06-01T02:55:37;6.70;;;3.80;;
63945;SDS011;50122;56.330;43.838;2023-06-01T02:58:03;6.63;;;3.63;;
63945;SDS011;50122;56.330;43.838;2023-06-01T03:00:34;6.05;;;3.70;;
63945;SDS011;50122;56.330;43.838;2023-06-01T03:03:00;5.78;;;3.70;;
63945;SDS011;50122;56.330;43.838;2023-06-01T03:05:27;6.28;;;3.47;;
63945;SDS011;50122;56.330;43.838;2023-06-01T03:07:57;6.63;;;3.25;;
63945;SDS011;50122;56.330;43.838;2023-06-01T03:10:24;5.43;;;3.47;;
63945;SDS011;50122;56.330;43.838;2023-06-01T03:12:50;6.13;;;3.10;;
63945;SDS011;50122;56.330;43.838;2023-06-01T03:15:18;6.38;;;3.40;;
63945;SDS011;50122;56.330;43.838;2023-06-01T03:17:44;6.60;;;3.40;;
63945;SDS011;50122;56.330;43.838;2023-06-01T03:20:11;5.20;;;3.40;;
63945;SDS011;50122;56.330;43.838;2023-06-01T03:22:42;6.00;;;3.55;;
63945;SDS011;50122;56.330;43.838;2023-06-01T03:25:12;5.65;;;3.58;;
63945;SDS011;50122;56.330;43.838;2023-06-01T03:27:39;4.82;;;3.17;;
63945;SDS011;50122;56.330;43.838;2023-06-01T03:30:07;6.40;;;3.10;;
63945;SDS011;50122;56.330;43.838;2023-06-01T03:32:38;9.18;;;4.60;;
63945;SDS011;50122;56.330;43.838;2023-06-01T03:35:09;7.18;;;3.80;;
63945;SDS011;50122;56.330;43.838;2023-06-01T03:37:42;5.63;;;2.88;;
63945;SDS011;50122;56.330;43.838;2023-06-01T03:40:11;6.20;;;2.72;;
63945;SDS011;50122;56.330;43.838;2023-06-01T03:42:38;4.68;;;2.92;;
63945;SDS011;50122;56.330;43.838;2023-06-01T03:45:06;3.97;;;2.38;;
63945;SDS011;50122;56.330;43.838;2023-06-01T03:47:34;7.07;;;2.45;;
63945;SDS011;50122;56.330;43.838;2023-06-01T03:50:01;7.05;;;2.85;;
63945;SDS011;50122;56.330;43.838;2023-06-01T03:52:28;4.63;;;3.00;;
63945;SDS011;50122;56.330;43.838;2023-06-01T03:55:00;5.07;;;2.75;;
63945;SDS011;50122;56.330;43.838;2023-06-01T03:57:37;4.97;;;2.80;;
63945;SDS011;50122;56.330;43.838;2023-06-01T04:00:05;4.68;;;2.67;;
63945;SDS011;50122;56.330;43.838;2023-06-01T04:02:54;4.80;;;2.88;;
63945;SDS011;50122;56.330;43.838;2023-06-01T04:05:22;5.22;;;2.67;;
63945;SDS011;50122;56.330;43.838;2023-06-01T04:07:50;4.85;;;2.90;;
63945;SDS011;50122;56.330;43.838;2023-06-01T04:10:17;5.35;;;2.60;;
63945;SDS011;50122;56.330;43.838;2023-06-01T04:12:47;5.30;;;2.38;;
63945;SDS011;50122;56.330;43.838;2023-06-01T04:15:18;4.95;;;2.60;;
63945;SDS011;50122;56.330;43.838;2023-06-01T04:17:46;4.78;;;2.58;;
63945;SDS011;50122;56.330;43.838;2023-06-01T04:20:16;6.35;;;2.70;;
63945;SDS011;50122;56.330;43.838;2023-06-01T04:22:44;9.48;;;3.13;;
63945;SDS011;50122;56.330;43.838;2023-06-01T04:25:13;6.20;;;2.60;;
63945;SDS011;50122;56.330;43.838;2023-06-01T04:27:46;6.72;;;2.78;;
63945;SDS011;50122;56.330;43.838;2023-06-01T04:30:15;3.92;;;2.58;;
63945;SDS011;50122;56.330;43.838;2023-06-01T04:32:43;5.85;;;2.88;;
63945;SDS011;50122;56.330;43.838;2023-06-01T04:35:11;4.72;;;2.80;;
63945;SDS011;50122;56.330;43.838;2023-06-01T04:37:38;5.47;;;2.70;;
63945;SDS011;50122;56.330;43.838;2023-06-01T04:40:10;7.18;;;2.95;;
63945;SDS011;50122;56.330;43.838;2023-06-01T04:42:40;7.25;;;3.17;;
63945;SDS011;50122;56.330;43.838;2023-06-01T04:45:09;6.35;;;2.67;;
63945;SDS011;50122;56.330;43.838;2023-06-01T04:47:37;5.20;;;2.72;;
63945;SDS011;50122;56.330;43.838;2023-06-01T04:50:09;7.28;;;2.50;;
63945;SDS011;50122;56.330;43.838;2023-06-01T04:52:37;5.05;;;2.97;;
63945;SDS011;50122;56.330;43.838;2023-06-01T04:55:05;6.93;;;2.92;;
63945;SDS011;50122;56.330;43.838;2023-06-01T04:57:33;6.53;;;3.08;;
63945;SDS011;50122;56.330;43.838;2023-06-01T05:00:05;6.45;;;2.63;;
63945;SDS011;50122;56.330;43.838;2023-06-01T05:02:39;7.97;;;3.38;;
63945;SDS011;50122;56.330;43.838;2023-06-01T05:05:07;5.88;;;2.75;;
63945;SDS011;50122;56.330;43.838;2023-06-01T05:07:37;6.68;;;2.95;;
63945;SDS011;50122;56.330;43.838;2023-06-01T05:10:05;5.28;;;3.00;;
63945;SDS011;50122;56.330;43.838;2023-06-01T05:12:33;5.97;;;3.22;;
63945;SDS011;50122;56.330;43.838;2023-06-01T05:15:01;7.63;;;2.95;;
63945;SDS011;50122;56.330;43.838;2023-06-01T05:17:29;6.22;;;2.92;;
63945;SDS011;50122;56.330;43.838;2023-06-01T05:19:56;6.70;;;3.00;;
63945;SDS011;50122;56.330;43.838;2023-06-01T05:22:23;5.22;;;2.90;;
63945;SDS011;50122;56.330;43.838;2023-06-01T05:24:51;6.10;;;2.75;;
63945;SDS011;50122;56.330;43.838;2023-06-01T05:27:18;5.68;;;2.60;;
63945;SDS011;50122;56.330;43.838;2023-06-01T05:29:45;8.00;;;3.13;;
63945;SDS011;50122;56.330;43.838;2023-06-01T05:32:12;5.95;;;2.97;;
63945;SDS011;50122;56.330;43.838;2023-06-01T05:34:39;6.50;;;2.70;;
